KENL

Details ICAO KENL
Name CENTRALIA MUNI
Region United States
Timezone America/Chicago (UTC-6.0)
Plans Departing 3
Arriving 9
Stats Elevation 534 ft / 163 m (AMSL)
Location 38.515150° -89.090990°
Runways 2
Magnetic Variation 2.353° W
Sunrise 2017-12-11 13:05:23 UTC / 2017-12-11 07:05:23 Local
Sunset 2017-12-11 22:36:59 UTC / 2017-12-11 16:36:59 Local
Advertisement - Login to hide

Runways

ID Width Length Bearing (true) Bearing (mag) Surface Threshold Offset Overrun Length
09 60 ft / 18 m 3,293 ft / 1,004 m 87.15° 89.50° Asphalt 300 ft / 91 m 0 ft / 0 m
18 75 ft / 23 m 5,011 ft / 1,527 m 180.64° 182.99° Asphalt 0 ft / 0 m 0 ft / 0 m
27 60 ft / 18 m 3,293 ft / 1,004 m 267.16° 269.51° Asphalt 300 ft / 91 m 0 ft / 0 m
36 75 ft / 23 m 5,011 ft / 1,527 m 0.64° 2.99° Asphalt 0 ft / 0 m 0 ft / 0 m

Map

Weather


0- 5 10 15 20 25 30 35+ Temperature / ° C

Clouds and Precipitation
Forecast for 2017-12-12 00:00 UTC. Updated 2 hours ago

Ground ~20,000 ft ~40,000 ft Winds

METAR

KENL 120035Z AUTO 30018G22KT 10SM OVC065 10/00 A2985 RMK AO2 T00970000

TAF

Not found

Frequencies

Recorded 121.12 MHz AWOS 3
Unicom 122.80 MHz CTAF/UNICOM
Warning: Do not use this data for real-world aviation or navigation. No guarantee of current accuracy is given.